Time;durP1;ratioP1;P1;durP2;ratioP2;P2;SDS_P1;SDS_P2;PMS_P1;PMS_P2;Temp;Humidity;BMP_temperature;BMP_pressure;BME280_temperature;BME280_humidity;BME280_pressure;Samples;Min_cycle;Max_cycle;Signal;HPM_P1;HPM_P2
2021/06/16 00:00:21;;;;;;;5.00;1.20;;;17.50;99.90;;;;;;4997603;28;20223;-72
2021/06/16 00:02:46;;;;;;;3.83;1.40;;;17.50;99.90;;;;;;5014495;28;20214;-72
2021/06/16 00:05:13;;;;;;;1.93;1.00;;;17.50;99.90;;;;;;5013777;28;20174;-73
2021/06/16 00:07:39;;;;;;;2.10;1.23;;;17.40;99.90;;;;;;5013595;28;20175;-72
2021/06/16 00:10:06;;;;;;;2.30;1.50;;;17.40;99.90;;;;;;5013551;28;20661;-72
2021/06/16 00:12:32;;;;;;;4.27;1.40;;;17.30;99.90;;;;;;5013526;28;20710;-72
2021/06/16 00:14:57;;;;;;;3.53;1.33;;;17.30;99.90;;;;;;5013373;28;20175;-72
2021/06/16 00:17:23;;;;;;;2.63;1.10;;;17.30;99.90;;;;;;5013322;28;20212;-72
2021/06/16 00:19:49;;;;;;;3.70;1.27;;;17.30;99.90;;;;;;5013388;28;20653;-72
2021/06/16 00:22:14;;;;;;;3.30;1.20;;;17.20;99.90;;;;;;4996841;28;20722;-72
2021/06/16 00:24:40;;;;;;;3.57;1.43;;;17.20;99.90;;;;;;4996790;28;20248;-72
2021/06/16 00:27:05;;;;;;;2.00;1.10;;;17.20;99.90;;;;;;4997110;28;20575;-72
2021/06/16 00:29:31;;;;;;;2.97;1.40;;;17.20;99.90;;;;;;5013080;28;20214;-72
2021/06/16 00:31:57;;;;;;;3.63;1.00;;;17.20;99.90;;;;;;4996935;28;20198;-72
2021/06/16 00:34:23;;;;;;;2.60;1.40;;;17.20;99.90;;;;;;5012866;28;20172;-72
2021/06/16 00:36:48;;;;;;;1.77;1.10;;;17.20;99.90;;;;;;5013051;28;20550;-72
2021/06/16 00:39:14;;;;;;;3.37;1.10;;;17.10;99.90;;;;;;5013992;28;20222;-72
2021/06/16 00:41:39;;;;;;;2.97;1.30;;;17.10;99.90;;;;;;5013082;28;20203;-72
2021/06/16 00:44:05;;;;;;;6.13;1.67;;;17.00;99.90;;;;;;4996325;28;20231;-72
2021/06/16 00:46:31;;;;;;;2.40;1.17;;;17.10;99.90;;;;;;5012920;28;20255;-72
2021/06/16 00:48:57;;;;;;;7.30;1.70;;;17.10;99.90;;;;;;4996423;28;20184;-72
2021/06/16 00:51:22;;;;;;;2.40;1.50;;;17.00;99.90;;;;;;5012883;28;20258;-72
2021/06/16 00:53:48;;;;;;;4.80;1.70;;;17.00;99.90;;;;;;4979691;28;20666;-72
2021/06/16 00:56:13;;;;;;;4.73;1.37;;;17.00;99.90;;;;;;5012541;28;20203;-72
2021/06/16 00:58:39;;;;;;;1.67;1.20;;;17.00;99.90;;;;;;4996009;28;20175;-72
2021/06/16 01:01:16;;;;;;;4.43;1.50;;;17.00;99.90;;;;;;4979836;28;20187;-72
2021/06/16 01:03:58;;;;;;;3.27;1.57;;;16.90;99.90;;;;;;5012221;28;20206;-72
2021/06/16 01:06:30;;;;;;;5.80;1.33;;;16.90;99.90;;;;;;5013597;28;20196;-72
2021/06/16 01:09:05;;;;;;;2.23;1.27;;;16.80;99.90;;;;;;4996195;28;20635;-72
2021/06/16 01:11:33;;;;;;;4.27;1.50;;;16.80;99.90;;;;;;5013556;28;20175;-72
2021/06/16 01:14:04;;;;;;;3.50;1.37;;;16.70;99.90;;;;;;5012071;28;20544;-72
2021/06/16 01:16:42;;;;;;;2.17;1.23;;;16.70;99.90;;;;;;4995954;28;20199;-72
2021/06/16 01:19:17;;;;;;;2.97;1.40;;;16.70;99.90;;;;;;4995839;28;20180;-72
2021/06/16 01:21:43;;;;;;;3.70;1.30;;;16.60;99.90;;;;;;4979688;28;20167;-72
2021/06/16 01:24:16;;;;;;;3.83;1.73;;;16.70;99.90;;;;;;4995659;28;20207;-72
2021/06/16 01:26:47;;;;;;;3.50;1.37;;;16.60;99.90;;;;;;4995780;28;20586;-72
2021/06/16 01:29:15;;;;;;;4.80;1.30;;;16.70;99.90;;;;;;4995678;28;20183;-73
2021/06/16 01:31:41;;;;;;;4.67;1.33;;;16.70;99.90;;;;;;5013150;28;20176;-73
2021/06/16 01:34:08;;;;;;;6.17;1.43;;;16.70;99.90;;;;;;5011700;28;20192;-73
2021/06/16 01:36:33;;;;;;;2.10;1.40;;;16.60;99.90;;;;;;4995471;28;20529;-73
2021/06/16 01:38:59;;;;;;;2.87;1.40;;;16.50;99.90;;;;;;5011886;28;20190;-73
2021/06/16 01:41:25;;;;;;;2.73;1.30;;;16.40;99.90;;;;;;4995467;28;20593;-73
2021/06/16 01:43:53;;;;;;;3.17;1.20;;;16.40;99.90;;;;;;4995198;28;20194;-73
2021/06/16 01:46:18;;;;;;;3.17;1.30;;;16.40;99.90;;;;;;4995298;28;20262;-73
2021/06/16 01:48:44;;;;;;;5.73;1.60;;;16.40;99.90;;;;;;4995476;28;20721;-73
2021/06/16 01:51:09;;;;;;;3.37;1.10;;;16.40;99.90;;;;;;4979203;28;20194;-73
2021/06/16 01:53:35;;;;;;;1.63;1.10;;;16.30;99.90;;;;;;5011404;28;20196;-73
2021/06/16 01:56:01;;;;;;;4.17;1.53;;;16.30;99.90;;;;;;4995471;28;20246;-74
2021/06/16 01:58:26;;;;;;;3.43;1.63;;;16.20;99.90;;;;;;5012324;28;20175;-73
2021/06/16 02:00:52;;;;;;;4.77;1.53;;;16.20;99.90;;;;;;4995281;28;20175;-73
2021/06/16 02:03:18;;;;;;;2.73;1.40;;;16.10;99.90;;;;;;5068038;22;20226;-74
2021/06/16 02:05:43;;;;;;;5.13;1.70;;;16.10;99.90;;;;;;5047909;28;20602;-74
2021/06/16 02:08:16;;;;;;;4.00;1.47;;;16.00;99.90;;;;;;5047624;28;20182;-74
2021/06/16 02:10:44;;;;;;;3.73;1.50;;;15.90;99.90;;;;;;5047314;28;20699;-74
2021/06/16 02:13:10;;;;;;;3.10;1.57;;;15.80;99.90;;;;;;5047476;28;20206;-74
2021/06/16 02:16:04;;;;;;;2.13;1.43;;;15.70;99.90;;;;;;5032591;28;20620;-74
2021/06/16 02:18:47;;;;;;;6.87;1.63;;;15.60;99.90;;;;;;5025266;28;20707;-74
2021/06/16 02:21:15;;;;;;;5.70;1.60;;;15.60;99.90;;;;;;5047918;28;20262;-74
2021/06/16 02:23:42;;;;;;;4.97;1.77;;;15.60;99.90;;;;;;5047354;28;20252;-74
2021/06/16 02:26:08;;;;;;;2.90;1.50;;;15.50;99.90;;;;;;5047605;28;20215;-74
2021/06/16 02:28:33;;;;;;;4.30;1.70;;;15.50;99.90;;;;;;5047527;28;20646;-74
2021/06/16 02:30:59;;;;;;;2.60;1.53;;;15.50;99.90;;;;;;5047802;28;20182;-74
2021/06/16 02:33:24;;;;;;;7.47;1.73;;;15.50;99.90;;;;;;5047281;28;20199;-74
2021/06/16 02:35:50;;;;;;;3.37;1.47;;;15.50;99.90;;;;;;5047564;28;20224;-74
2021/06/16 02:38:22;;;;;;;4.73;2.00;;;15.40;99.90;;;;;;5047398;28;20642;-74
2021/06/16 02:40:47;;;;;;;2.77;1.60;;;15.40;99.90;;;;;;5047608;28;20220;-74
2021/06/16 02:43:13;;;;;;;2.53;1.70;;;15.30;99.90;;;;;;5046207;28;20294;-74
2021/06/16 02:45:38;;;;;;;5.37;1.63;;;15.30;99.90;;;;;;5047235;28;20179;-74
2021/06/16 02:48:05;;;;;;;5.67;1.67;;;15.30;99.90;;;;;;5030576;28;20183;-74
2021/06/16 02:50:30;;;;;;;2.80;1.77;;;15.30;99.90;;;;;;5047278;28;20187;-74
2021/06/16 02:53:03;;;;;;;4.13;1.70;;;15.30;99.90;;;;;;5046968;28;20194;-74
2021/06/16 02:55:28;;;;;;;4.13;1.77;;;15.30;99.90;;;;;;5047221;28;20603;-74
2021/06/16 02:57:54;;;;;;;2.37;1.80;;;15.30;99.90;;;;;;5047161;28;20294;-74
2021/06/16 03:00:20;;;;;;;3.37;1.90;;;15.30;99.90;;;;;;5047037;28;20187;-74
2021/06/16 03:02:47;;;;;;;5.47;1.77;;;15.30;99.90;;;;;;5046764;28;20739;-74
2021/06/16 03:05:15;;;;;;;3.37;1.70;;;15.30;99.90;;;;;;5047134;28;20182;-74
2021/06/16 03:07:40;;;;;;;7.33;1.70;;;15.20;99.90;;;;;;5046808;28;20665;-74
2021/06/16 03:10:07;;;;;;;4.07;1.90;;;15.20;99.90;;;;;;5046866;28;20187;-74
2021/06/16 03:12:33;;;;;;;4.80;2.00;;;15.20;99.90;;;;;;5046945;28;20207;-74
2021/06/16 03:14:58;;;;;;;4.43;1.33;;;15.20;99.90;;;;;;5046523;28;20186;-74
2021/06/16 03:17:24;;;;;;;4.17;2.00;;;15.20;99.90;;;;;;5047062;28;20199;-74
2021/06/16 03:19:49;;;;;;;3.30;1.63;;;15.20;99.90;;;;;;5030445;28;20211;-74
2021/06/16 03:22:15;;;;;;;2.47;1.80;;;15.10;99.90;;;;;;5048170;28;20205;-73
2021/06/16 03:24:42;;;;;;;2.80;1.70;;;15.10;99.90;;;;;;5033981;28;20182;-74
2021/06/16 03:27:08;;;;;;;3.33;1.70;;;15.20;99.90;;;;;;5034693;28;20276;-74
2021/06/16 03:29:33;;;;;;;3.93;2.27;;;15.20;99.90;;;;;;5034007;28;20277;-74
2021/06/16 03:32:00;;;;;;;5.20;2.00;;;15.30;99.90;;;;;;5030845;28;20643;-73
2021/06/16 03:34:26;;;;;;;2.53;1.80;;;15.40;99.90;;;;;;5030503;28;20196;-74
2021/06/16 03:36:51;;;;;;;3.07;1.97;;;15.40;99.90;;;;;;5030636;28;20701;-74
2021/06/16 03:39:17;;;;;;;4.10;2.20;;;15.40;99.90;;;;;;5030635;28;20556;-74
2021/06/16 03:41:42;;;;;;;5.50;2.10;;;15.40;99.90;;;;;;5030601;28;20547;-74
2021/06/16 03:44:08;;;;;;;5.63;2.50;;;15.40;99.90;;;;;;5030359;28;20279;-74
2021/06/16 03:46:35;;;;;;;4.53;1.97;;;15.40;99.90;;;;;;5013887;28;20697;-74
2021/06/16 03:49:01;;;;;;;6.00;2.13;;;15.40;99.90;;;;;;5013956;28;20270;-74
2021/06/16 03:51:27;;;;;;;3.00;1.83;;;15.40;99.90;;;;;;5030354;28;20180;-74
2021/06/16 03:53:53;;;;;;;6.60;2.27;;;15.50;99.90;;;;;;5013594;28;20210;-74
2021/06/16 03:56:18;;;;;;;4.07;2.00;;;15.50;99.90;;;;;;5030219;28;20203;-74
2021/06/16 03:58:44;;;;;;;3.67;2.13;;;15.50;99.90;;;;;;5030326;28;20188;-74
2021/06/16 04:01:13;;;;;;;7.13;2.13;;;15.60;99.90;;;;;;5030417;28;20188;-74
2021/06/16 04:03:39;;;;;;;5.87;2.20;;;15.60;99.90;;;;;;5029944;28;20225;-74
2021/06/16 04:06:05;;;;;;;2.83;1.93;;;15.60;99.90;;;;;;5015066;28;20198;-74
2021/06/16 04:08:31;;;;;;;3.53;2.23;;;15.60;99.90;;;;;;5013678;28;20187;-73
2021/06/16 04:10:56;;;;;;;4.87;2.20;;;15.60;99.90;;;;;;5030280;28;20203;-73
2021/06/16 04:13:22;;;;;;;5.37;2.10;;;15.70;99.90;;;;;;5029894;28;20192;-73
2021/06/16 04:15:48;;;;;;;4.37;2.13;;;15.70;99.90;;;;;;5030014;28;20262;-75
2021/06/16 04:18:14;;;;;;;3.80;2.13;;;15.80;99.90;;;;;;5029819;28;20182;-73
2021/06/16 04:20:39;;;;;;;6.57;2.20;;;15.80;99.90;;;;;;5029942;28;20180;-73
2021/06/16 04:23:05;;;;;;;5.13;1.90;;;15.90;99.90;;;;;;5028959;28;20207;-73
2021/06/16 04:25:30;;;;;;;4.30;2.00;;;16.00;99.90;;;;;;5028078;28;20176;-74
2021/06/16 04:27:56;;;;;;;5.17;2.40;;;16.00;99.90;;;;;;5012682;28;20176;-73
2021/06/16 04:30:22;;;;;;;5.93;2.20;;;16.10;99.90;;;;;;5012007;28;20180;-74
2021/06/16 04:32:48;;;;;;;3.73;2.27;;;16.00;99.90;;;;;;5029708;28;20213;-74
2021/06/16 04:35:13;;;;;;;5.37;2.40;;;16.10;99.90;;;;;;5029011;28;20180;-73
2021/06/16 04:37:39;;;;;;;5.63;2.00;;;16.10;99.90;;;;;;5014205;28;20680;-73
2021/06/16 04:40:05;;;;;;;3.93;2.30;;;16.00;99.90;;;;;;5014536;28;20255;-73
2021/06/16 04:42:31;;;;;;;5.80;2.20;;;16.00;99.90;;;;;;5029403;28;20237;-73
2021/06/16 04:44:57;;;;;;;4.17;2.40;;;16.10;99.90;;;;;;5029174;28;20183;-73
2021/06/16 04:47:22;;;;;;;3.07;2.20;;;16.20;99.90;;;;;;5014138;28;20190;-73
2021/06/16 04:49:48;;;;;;;3.63;2.07;;;16.30;99.90;;;;;;5029519;28;20183;-72
2021/06/16 04:52:13;;;;;;;3.60;2.20;;;16.40;99.90;;;;;;5029328;28;20669;-73
2021/06/16 04:54:39;;;;;;;3.40;2.30;;;16.40;99.90;;;;;;5029170;28;20187;-73
2021/06/16 04:57:05;;;;;;;4.93;2.37;;;16.40;99.90;;;;;;5013907;28;20595;-73
2021/06/16 04:59:31;;;;;;;3.23;2.27;;;16.40;99.90;;;;;;5013222;28;20654;-75
2021/06/16 05:01:57;;;;;;;5.27;2.10;;;16.60;99.90;;;;;;5030909;28;20185;-77
2021/06/16 05:04:23;;;;;;;4.33;2.23;;;16.60;99.90;;;;;;5014198;28;20219;-79
2021/06/16 05:06:48;;;;;;;5.53;2.10;;;16.70;99.90;;;;;;5031802;28;20232;-77
2021/06/16 05:09:16;;;;;;;4.03;2.33;;;16.80;99.90;;;;;;5018546;28;20190;-79
2021/06/16 05:11:44;;;;;;;4.00;2.20;;;16.90;99.90;;;;;;5005058;28;20192;-79
2021/06/16 05:14:16;;;;;;;3.60;2.20;;;16.90;99.90;;;;;;5019004;28;20219;-78
2021/06/16 05:16:42;;;;;;;3.60;2.40;;;17.00;99.90;;;;;;5024976;28;20207;-78
2021/06/16 05:19:15;;;;;;;2.80;2.00;;;17.10;99.90;;;;;;5049674;28;20179;-78
2021/06/16 05:21:42;;;;;;;5.57;2.40;;;17.20;99.90;;;;;;5044597;28;20214;-76
2021/06/16 05:24:07;;;;;;;6.37;2.17;;;17.50;99.90;;;;;;5032983;28;20200;-76
2021/06/16 05:26:33;;;;;;;3.83;2.03;;;17.50;99.90;;;;;;5016130;28;20261;-77
2021/06/16 05:28:58;;;;;;;3.03;2.13;;;17.70;99.90;;;;;;5031594;28;20250;-76
2021/06/16 05:31:24;;;;;;;3.97;1.80;;;17.70;99.90;;;;;;5026316;28;20631;-76
2021/06/16 05:33:49;;;;;;;4.17;2.03;;;17.80;99.90;;;;;;5043153;28;20698;-76
2021/06/16 05:36:15;;;;;;;3.17;2.00;;;17.90;99.90;;;;;;5030820;28;20207;-77
2021/06/16 05:38:40;;;;;;;3.70;1.90;;;18.00;99.90;;;;;;5034857;28;20278;-78
2021/06/16 05:41:06;;;;;;;3.33;2.00;;;18.20;99.90;;;;;;5031752;28;20207;-80
2021/06/16 05:43:32;;;;;;;3.57;2.10;;;18.70;99.90;;;;;;5036824;28;20199;-76
2021/06/16 05:45:58;;;;;;;6.43;1.83;;;19.10;99.90;;;;;;5030604;28;20210;-76
2021/06/16 05:48:23;;;;;;;5.23;1.97;;;19.50;99.90;;;;;;5048438;28;20209;-76
2021/06/16 05:50:49;;;;;;;4.57;2.00;;;19.70;99.90;;;;;;5031289;28;20454;-77
2021/06/16 05:53:15;;;;;;;4.97;1.87;;;19.90;99.90;;;;;;5027726;28;20618;-77
2021/06/16 05:55:40;;;;;;;4.67;1.73;;;19.90;99.90;;;;;;5028280;28;20589;-77
2021/06/16 05:58:06;;;;;;;3.43;1.90;;;20.00;99.90;;;;;;5012034;28;20215;-76
2021/06/16 06:00:31;;;;;;;2.73;1.67;;;20.10;99.90;;;;;;5028033;28;20703;-76
2021/06/16 06:02:57;;;;;;;6.27;2.00;;;20.40;99.90;;;;;;5027573;28;20341;-76
2021/06/16 06:05:22;;;;;;;4.20;1.50;;;20.50;99.90;;;;;;5028290;28;20175;-77
2021/06/16 06:07:48;;;;;;;3.47;1.40;;;20.50;99.90;;;;;;5031215;28;20277;-77
2021/06/16 06:10:13;;;;;;;4.47;1.80;;;20.70;99.90;;;;;;5047642;28;20179;-77
2021/06/16 06:12:39;;;;;;;5.03;1.53;;;20.90;99.90;;;;;;5031099;28;20213;-77
2021/06/16 06:15:06;;;;;;;5.17;1.73;;;21.20;99.90;;;;;;5031054;28;20205;-77
2021/06/16 06:17:32;;;;;;;2.60;1.33;;;21.40;99.90;;;;;;5049085;28;20281;-76
2021/06/16 06:19:58;;;;;;;2.17;1.30;;;21.80;99.90;;;;;;5048427;28;20232;-77
2021/06/16 06:22:23;;;;;;;3.77;1.40;;;22.20;99.90;;;;;;5052701;28;20178;-77
2021/06/16 06:24:49;;;;;;;1.83;1.20;;;22.80;99.90;;;;;;5036327;28;20175;-77
2021/06/16 06:27:15;;;;;;;3.73;1.30;;;23.10;99.90;;;;;;5044747;28;20188;-77
2021/06/16 06:29:40;;;;;;;1.23;1.03;;;23.10;99.90;;;;;;5011410;28;20176;-77
2021/06/16 06:32:06;;;;;;;1.63;1.10;;;23.10;99.90;;;;;;5012260;28;20183;-77
2021/06/16 06:34:32;;;;;;;3.03;1.10;;;22.90;99.90;;;;;;5030358;28;20237;-78
2021/06/16 06:36:57;;;;;;;3.07;1.20;;;23.00;99.90;;;;;;5032358;28;20206;-77
2021/06/16 06:39:23;;;;;;;2.83;1.20;;;23.10;99.90;;;;;;5050731;28;20200;-76
2021/06/16 06:41:48;;;;;;;3.63;1.93;;;22.80;99.90;;;;;;5050218;28;20650;-77
2021/06/16 06:44:14;;;;;;;4.93;1.43;;;22.50;99.90;;;;;;5031309;28;20197;-77
2021/06/16 06:46:39;;;;;;;2.33;1.30;;;22.30;99.90;;;;;;5033782;28;20201;-77
2021/06/16 06:49:05;;;;;;;5.83;1.30;;;22.20;99.90;;;;;;5047914;28;20171;-78
2021/06/16 06:51:31;;;;;;;2.77;1.20;;;22.20;99.90;;;;;;5033807;28;20197;-78
2021/06/16 06:53:56;;;;;;;2.50;1.10;;;22.20;99.90;;;;;;5029654;28;20222;-78
2021/06/16 06:56:22;;;;;;;2.13;1.20;;;22.20;99.90;;;;;;5036198;28;20230;-79
2021/06/16 06:58:47;;;;;;;2.40;1.00;;;22.20;99.90;;;;;;5027177;28;20166;-78
2021/06/16 07:01:13;;;;;;;7.70;1.37;;;22.40;99.90;;;;;;5051205;28;20211;-79
2021/06/16 07:03:38;;;;;;;2.87;1.40;;;22.60;99.90;;;;;;5052147;28;20302;-80
2021/06/16 07:06:04;;;;;;;3.93;1.30;;;22.70;99.90;;;;;;5037194;28;20184;-77
2021/06/16 07:08:29;;;;;;;2.53;1.30;;;22.90;99.90;;;;;;5032514;28;20257;-75
2021/06/16 07:10:55;;;;;;;4.43;1.17;;;23.00;99.90;;;;;;5048548;28;20194;-76
2021/06/16 07:13:20;;;;;;;2.17;1.13;;;23.00;99.90;;;;;;5034096;28;20198;-77
2021/06/16 07:15:47;;;;;;;1.93;0.93;;;23.10;99.90;;;;;;5050940;28;20672;-77
2021/06/16 07:18:13;;;;;;;2.13;1.27;;;23.20;99.90;;;;;;5051611;28;20253;-79
2021/06/16 07:20:39;;;;;;;1.67;1.20;;;23.60;99.90;;;;;;5034594;28;20203;-77
2021/06/16 07:23:04;;;;;;;3.40;1.30;;;24.00;99.90;;;;;;5050412;28;20717;-77
2021/06/16 07:25:30;;;;;;;2.27;1.10;;;24.40;99.90;;;;;;5034179;28;20667;-77
2021/06/16 07:27:55;;;;;;;3.07;1.00;;;24.40;99.90;;;;;;5035293;28;20578;-77
2021/06/16 07:30:21;;;;;;;3.43;2.07;;;24.70;99.90;;;;;;5050763;28;20179;-76
2021/06/16 07:32:46;;;;;;;4.20;1.90;;;24.80;99.90;;;;;;5033391;28;20202;-77
2021/06/16 07:35:12;;;;;;;2.77;1.33;;;24.90;99.90;;;;;;5034085;28;20642;-77
2021/06/16 07:37:38;;;;;;;2.27;1.00;;;25.10;99.90;;;;;;5050595;28;20206;-77
2021/06/16 07:40:06;;;;;;;2.10;1.20;;;24.90;99.90;;;;;;5050438;28;20177;-77
2021/06/16 07:42:31;;;;;;;2.77;1.20;;;24.50;99.90;;;;;;5050334;28;20611;-77
2021/06/16 07:44:57;;;;;;;3.13;1.03;;;24.50;99.90;;;;;;5050678;28;20270;-76
2021/06/16 07:47:22;;;;;;;2.03;1.00;;;24.30;99.90;;;;;;5050355;28;20261;-76
2021/06/16 07:49:48;;;;;;;2.30;1.20;;;24.40;99.90;;;;;;5050374;28;20552;-77
2021/06/16 07:52:14;;;;;;;2.90;1.10;;;24.40;99.90;;;;;;5033407;28;20551;-77
2021/06/16 07:54:39;;;;;;;3.07;0.90;;;24.40;99.90;;;;;;5033641;28;20187;-77
2021/06/16 07:57:05;;;;;;;2.00;1.10;;;24.40;99.90;;;;;;5050259;28;20217;-77
2021/06/16 07:59:30;;;;;;;2.03;1.20;;;24.60;99.90;;;;;;5033397;28;20179;-77
2021/06/16 08:01:57;;;;;;;3.83;1.17;;;24.80;99.90;;;;;;5033315;28;20204;-77
2021/06/16 08:04:24;;;;;;;1.23;1.13;;;24.80;99.90;;;;;;5033513;28;20211;-76
2021/06/16 08:06:50;;;;;;;5.57;1.50;;;24.80;99.90;;;;;;5049921;28;20190;-76
2021/06/16 08:09:16;;;;;;;2.77;1.23;;;24.60;99.90;;;;;;5048594;28;20175;-76
2021/06/16 08:11:41;;;;;;;3.47;1.30;;;24.60;99.90;;;;;;5033346;28;20233;-76
2021/06/16 08:14:07;;;;;;;1.37;1.10;;;24.70;99.90;;;;;;5049348;28;20206;-76
2021/06/16 08:16:32;;;;;;;1.73;1.20;;;24.90;99.90;;;;;;5049867;28;20214;-76
2021/06/16 08:18:58;;;;;;;2.67;1.00;;;25.00;99.90;;;;;;5049713;28;20179;-76
2021/06/16 08:21:23;;;;;;;2.20;1.10;;;25.10;99.90;;;;;;5050192;28;20175;-76
2021/06/16 08:23:49;;;;;;;2.42;1.10;;;25.20;99.90;;;;;;5049102;28;20201;-76
2021/06/16 08:26:15;;;;;;;5.33;1.70;;;25.30;99.90;;;;;;5049910;28;20635;-76
2021/06/16 08:28:40;;;;;;;1.52;1.00;;;25.50;99.90;;;;;;5049765;28;20183;-76
2021/06/16 08:31:06;;;;;;;1.87;1.20;;;25.70;99.90;;;;;;5032967;28;20659;-76
2021/06/16 08:33:31;;;;;;;4.60;1.20;;;25.70;99.90;;;;;;5048832;28;20195;-76
2021/06/16 08:35:57;;;;;;;3.08;1.65;;;25.80;99.90;;;;;;5049442;28;20181;-76
2021/06/16 08:38:23;;;;;;;3.42;1.10;;;25.90;99.90;;;;;;5049415;28;20179;-76
2021/06/16 08:40:48;;;;;;;2.20;1.17;;;25.70;99.90;;;;;;5049401;28;20183;-76
2021/06/16 08:43:14;;;;;;;1.77;1.25;;;25.70;99.90;;;;;;5032386;28;20227;-76
2021/06/16 08:45:39;;;;;;;1.65;1.05;;;25.50;99.90;;;;;;5049151;28;20190;-76
2021/06/16 08:48:06;;;;;;;1.60;1.42;;;25.50;99.90;;;;;;5049471;28;20189;-75
2021/06/16 08:50:31;;;;;;;1.42;1.10;;;25.50;99.90;;;;;;5049456;28;20197;-76
2021/06/16 08:52:57;;;;;;;2.10;1.33;;;25.40;99.90;;;;;;5032660;28;20576;-76
2021/06/16 08:55:22;;;;;;;4.30;1.80;;;25.30;99.90;;;;;;5049692;28;20664;-76
2021/06/16 08:57:49;;;;;;;2.83;1.30;;;25.40;99.90;;;;;;5033586;28;20234;-77
2021/06/16 09:00:15;;;;;;;2.00;1.50;;;25.70;99.90;;;;;;5021604;28;20237;-76
2021/06/16 09:02:40;;;;;;;3.97;1.52;;;26.00;99.90;;;;;;5039234;28;20317;-77
2021/06/16 09:05:06;;;;;;;2.35;1.45;;;26.10;99.90;;;;;;5019339;28;20642;-78
2021/06/16 09:07:33;;;;;;;2.10;1.40;;;26.00;99.90;;;;;;5028967;28;20694;-79
2021/06/16 09:10:14;;;;;;;3.53;1.30;;;26.10;99.90;;;;;;5025941;28;20187;-78
2021/06/16 09:12:52;;;;;;;1.80;1.10;;;26.20;99.90;;;;;;5017016;28;20206;-78
2021/06/16 09:15:20;;;;;;;2.80;1.60;;;26.30;99.90;;;;;;5039594;28;20171;-78
2021/06/16 09:18:04;;;;;;;2.27;1.53;;;26.30;99.90;;;;;;5023976;28;20728;-78
2021/06/16 09:20:31;;;;;;;4.35;1.92;;;26.20;99.90;;;;;;5016442;28;20230;-77
2021/06/16 09:23:11;;;;;;;2.67;1.70;;;26.10;99.90;;;;;;5043202;28;20260;-77
2021/06/16 09:25:37;;;;;;;8.38;1.67;;;26.10;99.90;;;;;;5022639;28;20179;-77
2021/06/16 09:28:03;;;;;;;4.43;1.63;;;26.20;99.90;;;;;;5034507;28;20180;-77
2021/06/16 09:30:31;;;;;;;3.17;1.73;;;26.10;99.90;;;;;;5029472;28;20183;-76
2021/06/16 09:32:58;;;;;;;2.85;1.40;;;26.10;99.90;;;;;;5033289;28;20202;-77
2021/06/16 09:35:32;;;;;;;3.57;1.80;;;26.20;99.90;;;;;;5039259;28;20646;-77
2021/06/16 09:37:59;;;;;;;1.87;1.30;;;26.20;99.90;;;;;;5041848;28;20203;-77
2021/06/16 09:40:38;;;;;;;1.73;1.60;;;26.30;99.90;;;;;;5031523;28;20531;-78
2021/06/16 09:43:11;;;;;;;3.63;2.00;;;26.30;99.90;;;;;;5041872;28;20568;-77
2021/06/16 09:45:37;;;;;;;3.60;1.67;;;26.40;99.90;;;;;;5022166;28;20638;-77
2021/06/16 09:48:27;;;;;;;5.53;2.17;;;26.30;99.90;;;;;;5017286;28;20596;-78
2021/06/16 09:51:07;;;;;;;2.93;1.80;;;26.30;99.90;;;;;;5011564;28;20559;-76
2021/06/16 09:53:33;;;;;;;2.87;1.53;;;26.30;99.90;;;;;;5021565;28;20214;-78
2021/06/16 09:56:29;;;;;;;3.90;1.67;;;26.30;99.90;;;;;;5030469;28;20183;-76
2021/06/16 09:58:55;;;;;;;2.50;1.40;;;26.50;99.90;;;;;;5024746;28;20186;-75
2021/06/16 10:01:44;;;;;;;4.60;1.90;;;26.70;99.90;;;;;;5047071;28;20621;-75
2021/06/16 10:04:10;;;;;;;2.85;2.15;;;26.90;99.90;;;;;;5045655;28;20694;-76
2021/06/16 10:06:36;;;;;;;2.50;1.77;;;26.80;99.90;;;;;;5027887;28;20259;-77
2021/06/16 10:09:06;;;;;;;3.33;1.85;;;26.80;99.90;;;;;;5028097;28;20545;-76
2021/06/16 10:11:34;;;;;;;2.00;1.80;;;26.80;99.90;;;;;;5027976;28;20218;-76
2021/06/16 10:13:59;;;;;;;4.00;1.80;;;26.80;99.90;;;;;;5027298;28;20245;-76
2021/06/16 10:16:26;;;;;;;2.10;1.73;;;26.90;99.90;;;;;;5027767;28;20207;-78
2021/06/16 10:18:51;;;;;;;2.47;1.90;;;26.90;99.90;;;;;;5027616;28;20302;-76
2021/06/16 10:21:17;;;;;;;2.97;1.80;;;26.90;99.90;;;;;;5027755;28;20628;-76
2021/06/16 10:23:43;;;;;;;2.70;2.50;;;26.90;99.90;;;;;;5027542;28;20747;-76
2021/06/16 10:26:14;;;;;;;1.98;1.75;;;27.00;99.90;;;;;;5027959;28;20176;-76
2021/06/16 10:28:42;;;;;;;2.27;2.00;;;27.10;99.90;;;;;;5044072;28;20184;-76
2021/06/16 10:31:08;;;;;;;4.13;1.70;;;27.20;99.90;;;;;;5044033;28;20666;-76
2021/06/16 10:33:35;;;;;;;2.60;2.15;;;27.10;99.90;;;;;;5010317;28;20195;-75
2021/06/16 10:36:17;;;;;;;3.45;1.85;;;27.10;99.90;;;;;;5027465;28;20172;-76
2021/06/16 10:39:02;;;;;;;2.97;1.70;;;27.20;99.90;;;;;;5043862;28;20186;-74
2021/06/16 10:41:37;;;;;;;5.50;2.28;;;27.20;99.90;;;;;;5044024;28;20179;-75
2021/06/16 10:44:16;;;;;;;6.82;2.10;;;27.20;99.90;;;;;;5011912;28;20238;-76
2021/06/16 10:46:56;;;;;;;2.72;2.40;;;27.30;99.90;;;;;;5044037;28;20179;-76
2021/06/16 10:49:47;;;;;;;2.42;2.08;;;27.30;99.90;;;;;;5012180;28;20180;-76
2021/06/16 10:52:13;;;;;;;6.35;2.30;;;27.40;99.90;;;;;;5012150;28;20178;-76
2021/06/16 10:54:39;;;;;;;3.00;2.35;;;27.50;99.90;;;;;;5027361;28;20175;-75
2021/06/16 10:57:05;;;;;;;2.60;1.83;;;27.50;99.90;;;;;;5027313;28;20265;-77
2021/06/16 10:59:43;;;;;;;2.55;2.35;;;27.60;99.90;;;;;;5012015;28;20286;-77
2021/06/16 11:02:09;;;;;;;3.25;2.53;;;27.70;99.90;;;;;;5046372;28;20179;-76
2021/06/16 11:04:37;;;;;;;2.90;2.17;;;27.70;99.90;;;;;;5043067;28;20191;-76
2021/06/16 11:07:02;;;;;;;3.40;2.28;;;27.70;99.90;;;;;;5030188;28;20330;-75
2021/06/16 11:10:07;;;;;;;3.55;2.20;;;27.80;99.90;;;;;;5023030;28;20202;-75
2021/06/16 11:12:35;;;;;;;3.83;2.50;;;27.80;99.90;;;;;;4973092;28;20200;-75
2021/06/16 11:15:04;;;;;;;2.97;2.20;;;27.80;99.90;;;;;;4953108;28;20308;-75
2021/06/16 11:17:30;;;;;;;3.72;2.22;;;28.00;99.90;;;;;;4989950;28;20230;-75
2021/06/16 11:20:22;;;;;;;2.72;2.25;;;28.10;99.90;;;;;;5016001;28;20237;-75
2021/06/16 11:23:01;;;;;;;2.55;1.92;;;28.00;99.90;;;;;;5011029;28;20652;-75
2021/06/16 11:25:35;;;;;;;3.92;2.45;;;28.00;99.90;;;;;;5016745;28;20624;-75
2021/06/16 11:28:03;;;;;;;2.45;2.10;;;28.00;99.90;;;;;;5038576;28;20187;-75
2021/06/16 11:30:34;;;;;;;4.90;2.20;;;28.10;99.90;;;;;;5016322;28;20284;-75
2021/06/16 11:33:15;;;;;;;3.72;2.15;;;28.20;99.90;;;;;;5027878;28;20203;-75
2021/06/16 11:36:11;;;;;;;4.57;2.53;;;28.50;99.90;;;;;;5031365;28;20183;-75
2021/06/16 11:38:37;;;;;;;3.28;2.20;;;28.60;99.90;;;;;;5031218;28;20175;-75
2021/06/16 11:41:17;;;;;;;4.70;2.60;;;28.60;99.90;;;;;;5029253;28;20197;-76
2021/06/16 11:43:43;;;;;;;4.40;2.67;;;28.50;99.90;;;;;;5032983;28;20198;-76
2021/06/16 11:46:16;;;;;;;3.35;2.75;;;28.40;99.90;;;;;;5018300;28;20187;-75
2021/06/16 11:48:43;;;;;;;3.35;2.25;;;28.50;99.90;;;;;;5031620;28;20255;-76
2021/06/16 11:51:09;;;;;;;3.03;2.38;;;28.60;99.90;;;;;;5030349;28;20172;-75
2021/06/16 11:53:35;;;;;;;2.40;2.10;;;28.70;99.90;;;;;;5013786;28;20202;-75
2021/06/16 11:56:06;;;;;;;3.40;2.20;;;28.90;99.90;;;;;;5013704;28;20180;-76
2021/06/16 11:58:38;;;;;;;2.45;2.03;;;28.90;99.90;;;;;;5030387;28;20171;-76
2021/06/16 12:01:12;;;;;;;2.50;2.00;;;28.90;99.90;;;;;;5030322;28;20179;-75
2021/06/16 12:03:41;;;;;;;2.65;2.45;;;29.00;99.90;;;;;;5046667;28;20208;-75
2021/06/16 12:06:14;;;;;;;2.33;2.00;;;29.10;99.90;;;;;;5037736;28;20286;-76
2021/06/16 12:08:41;;;;;;;2.50;2.10;;;29.10;99.90;;;;;;5036919;28;20673;-76
2021/06/16 12:11:21;;;;;;;2.50;2.15;;;29.20;99.90;;;;;;5030053;28;20179;-76
2021/06/16 12:13:54;;;;;;;3.28;2.30;;;29.20;99.90;;;;;;5050096;28;20559;-76
2021/06/16 12:16:24;;;;;;;2.63;2.10;;;29.30;99.90;;;;;;5033463;28;20264;-76
2021/06/16 12:18:50;;;;;;;4.13;2.28;;;29.40;99.90;;;;;;5050194;28;20183;-76
2021/06/16 12:21:16;;;;;;;2.85;2.30;;;29.50;99.90;;;;;;5049837;28;20186;-77
2021/06/16 12:23:43;;;;;;;3.25;2.03;;;29.50;99.90;;;;;;5032896;28;20191;-77
2021/06/16 12:26:14;;;;;;;2.70;2.30;;;29.50;99.90;;;;;;5027006;28;20267;-77
2021/06/16 12:28:41;;;;;;;3.88;2.20;;;29.60;99.90;;;;;;5049860;28;20167;-77
2021/06/16 12:31:11;;;;;;;3.38;2.30;;;29.60;99.90;;;;;;5047788;28;20185;-76
2021/06/16 12:33:50;;;;;;;3.13;2.55;;;29.50;99.90;;;;;;5024681;28;20237;-77
2021/06/16 12:36:21;;;;;;;3.13;2.13;;;29.50;99.90;;;;;;5038048;28;20176;-78
2021/06/16 12:38:54;;;;;;;3.20;2.33;;;29.60;99.90;;;;;;5045610;28;20643;-76
2021/06/16 12:41:30;;;;;;;3.58;2.20;;;29.60;99.90;;;;;;5035835;28;20168;-76
2021/06/16 12:44:26;;;;;;;2.78;2.22;;;29.60;99.90;;;;;;5038294;28;20253;-77
2021/06/16 12:47:05;;;;;;;2.60;2.25;;;29.60;99.90;;;;;;5041237;28;20249;-77
2021/06/16 12:49:33;;;;;;;5.45;2.78;;;29.80;99.90;;;;;;5035042;28;20241;-75
2021/06/16 12:52:01;;;;;;;4.68;2.30;;;29.80;99.90;;;;;;5031505;28;20278;-76